WetterOnline ( http://www.wetteronline.de )

Wetter aktuell Gera

Aktuelles Wetter: Gera/Leumnitz (311m)

6-stündlich | Neueste Meldungen
Ortszeit Temperatur Wetter
Mi, 19.09. 8:00 15.8° C bewölkt
Mi, 19.09. 2:00 17.7° C wolkenlos
Di, 18.09. 20:00 22.8° C wolkenlos
Di, 18.09. 14:00 28.6° C wolkenlos
Di, 18.09. 8:00 13.7° C wolkig
Di, 18.09. 2:00 14.2° C wolkig
Mo, 17.09. 20:00 22.3° C wolkig
Mo, 17.09. 14:00 25.3° C wolkig
Ortszeit Temperatur Wetter
Mi, 19.09. 12:30 25.2° C fast wolkenlos
Mi, 19.09. 12:20 25.2° C fast wolkenlos
Mi, 19.09. 12:10 25.0° C fast wolkenlos
Mi, 19.09. 12:00 23.2° C fast wolkenlos
Mi, 19.09. 11:50 23.2° C fast wolkenlos
Mi, 19.09. 11:40 22.8° C wolkenlos
Mi, 19.09. 11:30 20.8° C wolkenlos
Mi, 19.09. 11:00 18.8° C leicht bewölkt
Mi, 19.09. 10:30 18.5° C bedeckt
Mi, 19.09. 10:00 18.2° C wolkig
Mi, 19.09. 9:30 17.4° C bewölkt
Ortszeit Relative Feuchte Sichtweite
Mi, 19.09. 8:00 74% 22 km
Mi, 19.09. 2:00 60% 45 km
Di, 18.09. 20:00 41% 60 km
Di, 18.09. 14:00 30% 14 km
Di, 18.09. 8:00 78% 17 km
Di, 18.09. 2:00 72% 20 km
Mo, 17.09. 20:00 47% 26 km
Mo, 17.09. 14:00 38% 13 km
Ortszeit Relative Feuchte Sichtweite
Mi, 19.09. 12:30 47% 16 km
Mi, 19.09. 12:20 47% -
Mi, 19.09. 12:10 48% -
Mi, 19.09. 12:00 57% 14 km
Mi, 19.09. 11:50 57% -
Mi, 19.09. 11:40 58% -
Mi, 19.09. 11:30 63% 9 km
Mi, 19.09. 11:00 70% 18 km
Mi, 19.09. 10:30 68% 22 km
Mi, 19.09. 10:00 68% 22 km
Mi, 19.09. 9:30 69% 21 km
Ortszeit Niederschlagsmenge Niederschlagsart
Mi, 19.09. 8:00 0.0 l/m2 in 12 Std. -
Mi, 19.09. 2:00 0.0 l/m2 in 6 Std. -
Di, 18.09. 20:00 0.0 l/m2 in 12 Std. -
Di, 18.09. 14:00 0.0 l/m2 in 6 Std. -
Di, 18.09. 8:00 0.0 l/m2 in 12 Std. -
Di, 18.09. 2:00 0.0 l/m2 in 6 Std. -
Mo, 17.09. 20:00 0.0 l/m2 in 12 Std. -
Mo, 17.09. 14:00 0.0 l/m2 in 6 Std. -
Ortszeit Niederschlagsmenge Niederschlagsart
Mi, 19.09. 12:30 0.0 l/m2 in 1 Std. -
Mi, 19.09. 12:20 keine Meldung -
Mi, 19.09. 12:10 keine Meldung -
Mi, 19.09. 12:00 0.0 l/m2 in 1 Std. -
Mi, 19.09. 11:50 keine Meldung -
Mi, 19.09. 11:40 keine Meldung -
Mi, 19.09. 11:30 0.0 l/m2 in 1 Std. -
Mi, 19.09. 11:00 0.1 l/m2 in 1 Std. Regen
Mi, 19.09. 10:30 0.1 l/m2 in 1 Std. Schneeregen
Mi, 19.09. 10:00 0.1 l/m2 in 1 Std. Regen
Mi, 19.09. 9:30 0.0 l/m2 in 1 Std. -
Ortszeit Stärke Spitze Richtung
km/h Bft. km/h Grad Sektor
Mi, 19.09. 8:00 7 2 18 200° S
Mi, 19.09. 2:00 14 3 18 190° S
Di, 18.09. 20:00 9 2 33 190° S
Di, 18.09. 14:00 18 3 29 220° SW
Di, 18.09. 8:00 14 3 22 190° S
Di, 18.09. 2:00 11 2 14 190° S
Mo, 17.09. 20:00 9 2 24 160° S
Mo, 17.09. 14:00 11 2 25 170° S
Ortszeit Stärke Spitze Richtung
km/h Bft. km/h Grad Sektor
Mi, 19.09. 12:30 15 3 30 230° SW
Mi, 19.09. 12:20 15 3 - 230° SW
Mi, 19.09. 12:10 20 4 - 200° S
Mi, 19.09. 12:00 14 3 22 210° SW
Mi, 19.09. 11:50 14 3 - 210° SW
Mi, 19.09. 11:40 13 3 - 210° SW
Mi, 19.09. 11:30 6 1 11 200° S
Mi, 19.09. 11:00 7 2 18 200° S
Mi, 19.09. 10:30 11 2 18 190° S
Mi, 19.09. 10:00 13 3 19 180° S
Mi, 19.09. 9:30 14 3 18 140° SO
Ortszeit Untergrenze Bedeckung Gattung
total tief tief mittel hoch
Mi, 19.09. 8:00 2400 m 8/8 5/8 - - -
Mi, 19.09. 2:00 - 0/8 0/8 - - -
Di, 18.09. 20:00 - 0/8 0/8 - - -
Di, 18.09. 14:00 - 0/8 0/8 - - -
Di, 18.09. 8:00 10500 m 8/8 0/8 - - -
Di, 18.09. 2:00 10500 m 8/8 0/8 - - -
Mo, 17.09. 20:00 9000 m 8/8 0/8 - - -
Mo, 17.09. 14:00 1500 m 8/8 2/8 - - -
Ortszeit Bedeckungsgrad in Achtel und Wolkenuntergrenze
Mi, 19.09. 12:30 1(7500m)
Mi, 19.09. 12:20 1(7500m)
Mi, 19.09. 12:10 1(7500m)
Mi, 19.09. 12:00 1(7500m)
Mi, 19.09. 11:50 1(7500m)
Mi, 19.09. 11:40 keine Wolken
Mi, 19.09. 11:30 keine Wolken
Mi, 19.09. 11:00 2(4200m) 4(4800m)
Mi, 19.09. 10:30 7(3000m) 8(3600m) 8(4200m)
Mi, 19.09. 10:00 2(2100m) 7(3600m) 8(4800m)
Mi, 19.09. 9:30 7(2700m) 7(4800m) 7(7500m)
Ortszeit Luftdruck NN (hPa) Tendenz (hPa in 3 Std.)
Mi, 19.09. 8:00 1019 + 1,3
Mi, 19.09. 2:00 1016 + 0,3
Di, 18.09. 20:00 1014 + 0,1
Di, 18.09. 14:00 1015 - 1,4
Di, 18.09. 8:00 1018 - 0,1
Di, 18.09. 2:00 1018 - 0,6
Mo, 17.09. 20:00 1018 - 0,2
Mo, 17.09. 14:00 1019 - 1,0
Ortszeit Luftdruck NN (hPa) Tendenz (hPa in 3 Std.)
Mi, 19.09. 12:30 1018 - 0,4
Mi, 19.09. 12:20 1018 keine Meldung
Mi, 19.09. 12:10 1019 keine Meldung
Mi, 19.09. 12:00 1019 - 0,3
Mi, 19.09. 11:50 1019 keine Meldung
Mi, 19.09. 11:40 1019 keine Meldung
Mi, 19.09. 11:30 1020 + 0,7
Mi, 19.09. 11:00 1020 + 1,3
Mi, 19.09. 10:30 1020 + 1,6
Mi, 19.09. 10:00 1020 + 1,9
Mi, 19.09. 9:30 1020 + 1,5
Ortszeit Schneehöhe (cm)
Mi, 19.09. 8:00 -
Mi, 19.09. 2:00 -
Di, 18.09. 20:00 -
Di, 18.09. 14:00 -
Di, 18.09. 8:00 -
Di, 18.09. 2:00 -
Mo, 17.09. 20:00 -
Mo, 17.09. 14:00 -
Ortszeit Schneehöhe (cm)
Mi, 19.09. 12:30 -
Mi, 19.09. 12:20 -
Mi, 19.09. 12:10 -
Mi, 19.09. 12:00 -
Mi, 19.09. 11:50 -
Mi, 19.09. 11:40 -
Mi, 19.09. 11:30 -
Mi, 19.09. 11:00 -
Mi, 19.09. 10:30 -
Mi, 19.09. 10:00 -
Mi, 19.09. 9:30 -
Link zu dieser Seite / Seite empfehlen

Das Wetter in ...